createdAt,value
2018-12-29T00:00:43.949Z,93.70
2018-12-29T00:03:13.351Z,93.60
2018-12-29T00:05:42.759Z,93.60
2018-12-29T00:08:12.205Z,93.60
2018-12-29T00:10:41.562Z,93.40
2018-12-29T00:13:10.928Z,93.50
2018-12-29T00:15:40.413Z,93.50
2018-12-29T00:18:09.758Z,93.50
2018-12-29T00:20:39.220Z,93.60
2018-12-29T00:23:08.739Z,93.70
2018-12-29T00:25:38.163Z,93.80
2018-12-29T00:28:07.539Z,93.70
2018-12-29T00:30:37.000Z,93.70
2018-12-29T00:33:06.665Z,93.70
2018-12-29T00:35:36.135Z,93.60
2018-12-29T00:38:05.629Z,93.70
2018-12-29T00:40:34.994Z,93.70
2018-12-29T00:43:04.468Z,93.70
2018-12-29T00:45:33.959Z,93.70
2018-12-29T00:48:03.400Z,93.70
2018-12-29T00:50:32.808Z,93.70
2018-12-29T00:53:02.225Z,93.70
2018-12-29T00:55:31.680Z,93.80
2018-12-29T00:58:01.048Z,93.90
2018-12-29T01:00:30.517Z,93.90
2018-12-29T01:02:59.949Z,93.90
2018-12-29T01:05:29.378Z,93.90
2018-12-29T01:07:58.892Z,94.00
2018-12-29T01:10:28.312Z,94.00
2018-12-29T01:12:57.677Z,94.00
2018-12-29T01:15:27.199Z,94.00
2018-12-29T01:17:56.613Z,94.00
2018-12-29T01:20:25.968Z,94.00
2018-12-29T01:22:55.427Z,94.20
2018-12-29T01:25:24.793Z,94.10
2018-12-29T01:27:54.180Z,94.10
2018-12-29T01:30:23.596Z,94.00
2018-12-29T01:32:52.971Z,93.90
2018-12-29T01:35:22.385Z,93.90
2018-12-29T01:37:51.827Z,94.00
2018-12-29T01:40:21.296Z,94.00
2018-12-29T01:42:50.655Z,94.10
2018-12-29T01:45:20.145Z,94.10
2018-12-29T01:47:49.597Z,94.10
2018-12-29T01:50:19.032Z,94.30
2018-12-29T01:52:48.513Z,94.40
2018-12-29T01:55:17.937Z,94.40
2018-12-29T01:57:47.337Z,94.70
2018-12-29T02:00:16.787Z,94.40
2018-12-29T02:02:46.209Z,94.30
2018-12-29T02:05:15.569Z,94.30
2018-12-29T02:07:44.977Z,94.30
2018-12-29T02:10:14.656Z,94.30
2018-12-29T02:12:44.073Z,94.20
2018-12-29T02:15:13.545Z,94.30
2018-12-29T02:17:42.893Z,94.20
2018-12-29T02:20:12.250Z,94.20
2018-12-29T02:22:41.837Z,94.10
2018-12-29T02:25:11.155Z,93.90
2018-12-29T02:27:40.478Z,93.80
2018-12-29T02:30:09.984Z,93.90
2018-12-29T02:32:41.129Z,93.80
2018-12-29T02:35:10.566Z,93.80
2018-12-29T02:37:40.073Z,93.80
2018-12-29T02:40:09.511Z,93.80
2018-12-29T02:42:38.939Z,93.80
2018-12-29T02:45:08.446Z,93.80
2018-12-29T02:47:38.029Z,93.70
2018-12-29T02:50:07.478Z,93.70
2018-12-29T02:52:36.950Z,93.70
2018-12-29T02:55:06.493Z,93.70
2018-12-29T02:57:35.857Z,93.70
2018-12-29T03:00:05.423Z,93.70
2018-12-29T03:02:34.829Z,93.80
2018-12-29T03:05:04.373Z,93.70
2018-12-29T03:07:33.873Z,93.90
2018-12-29T03:10:03.561Z,93.80
2018-12-29T03:12:32.933Z,93.90
2018-12-29T03:15:02.346Z,93.90
2018-12-29T03:17:31.709Z,94.00
2018-12-29T03:20:01.047Z,93.90
2018-12-29T03:22:30.510Z,93.90
2018-12-29T03:25:00.023Z,94.00
2018-12-29T03:27:29.421Z,93.90
2018-12-29T03:29:58.875Z,93.90
2018-12-29T03:32:28.292Z,93.90
2018-12-29T03:34:57.670Z,93.90
2018-12-29T03:37:27.057Z,93.80
2018-12-29T03:39:56.408Z,93.80
2018-12-29T03:42:25.868Z,93.70
2018-12-29T03:44:55.318Z,93.70
2018-12-29T03:47:24.672Z,93.70
2018-12-29T03:49:54.050Z,93.70
2018-12-29T03:52:23.526Z,93.80
2018-12-29T03:54:53.069Z,93.70
2018-12-29T03:57:22.454Z,93.70
2018-12-29T03:59:51.894Z,93.70
2018-12-29T04:02:21.256Z,93.70
2018-12-29T04:04:50.716Z,93.70
2018-12-29T04:07:20.113Z,94.00
2018-12-29T04:09:49.465Z,93.70
2018-12-29T04:12:21.481Z,93.70
2018-12-29T04:14:51.038Z,93.60
2018-12-29T04:17:20.378Z,93.60
2018-12-29T04:19:49.769Z,93.60
2018-12-29T04:22:19.210Z,93.50
2018-12-29T04:24:48.586Z,93.50
2018-12-29T04:27:17.957Z,93.50
2018-12-29T04:29:47.389Z,93.40
2018-12-29T04:32:16.751Z,93.40
2018-12-29T04:34:46.224Z,93.50
2018-12-29T04:37:15.698Z,93.50
2018-12-29T04:39:45.059Z,93.50
2018-12-29T04:42:14.497Z,93.50
2018-12-29T04:44:43.975Z,93.50
2018-12-29T04:47:13.340Z,93.50
2018-12-29T04:49:42.698Z,93.50
2018-12-29T04:52:12.211Z,93.50
2018-12-29T04:54:41.578Z,93.40
2018-12-29T04:57:10.911Z,93.30
2018-12-29T04:59:40.352Z,93.30
2018-12-29T05:02:09.771Z,93.40
2018-12-29T05:04:39.119Z,93.40
2018-12-29T05:07:08.547Z,93.40
2018-12-29T05:09:37.897Z,93.30
2018-12-29T05:12:07.273Z,93.30
2018-12-29T05:14:37.143Z,93.30
2018-12-29T05:17:06.576Z,93.30
2018-12-29T05:19:35.926Z,93.60
2018-12-29T05:22:05.381Z,93.40
2018-12-29T05:24:34.714Z,93.70
2018-12-29T05:27:04.063Z,93.40
2018-12-29T05:29:33.550Z,93.40
2018-12-29T05:32:03.475Z,93.40
2018-12-29T05:34:32.885Z,93.70
2018-12-29T05:37:02.322Z,93.40
2018-12-29T05:39:31.726Z,93.30
2018-12-29T05:42:01.042Z,93.30
2018-12-29T05:44:30.449Z,93.20
2018-12-29T05:46:59.818Z,93.10
2018-12-29T05:49:29.268Z,93.10
2018-12-29T05:51:58.709Z,93.00
2018-12-29T05:54:28.054Z,93.00
2018-12-29T05:56:57.404Z,92.90
2018-12-29T05:59:26.811Z,92.80
2018-12-29T06:01:56.262Z,92.70
2018-12-29T06:04:25.702Z,92.70
2018-12-29T06:06:55.138Z,92.50
2018-12-29T06:09:24.594Z,92.60
2018-12-29T06:11:53.974Z,92.50
2018-12-29T06:14:23.361Z,92.50
2018-12-29T06:16:52.796Z,92.50
2018-12-29T06:19:22.193Z,92.40
2018-12-29T06:21:51.641Z,92.30
2018-12-29T06:24:20.985Z,92.40
2018-12-29T06:26:50.299Z,92.40
2018-12-29T06:29:19.829Z,92.40
2018-12-29T06:31:49.455Z,92.40
2018-12-29T06:34:18.902Z,92.40
2018-12-29T06:36:48.420Z,92.20
2018-12-29T06:39:17.885Z,91.80
2018-12-29T06:41:47.343Z,91.90
2018-12-29T06:44:16.850Z,92.00
2018-12-29T06:46:46.246Z,92.00
2018-12-29T06:49:15.598Z,92.40
2018-12-29T06:51:45.089Z,92.10
2018-12-29T06:54:14.542Z,92.00
2018-12-29T06:56:44.007Z,92.00
2018-12-29T06:59:13.449Z,91.90
2018-12-29T07:01:42.809Z,92.00
2018-12-29T07:04:12.169Z,91.90
2018-12-29T07:06:41.585Z,91.70
2018-12-29T07:09:10.956Z,91.60
2018-12-29T07:11:40.346Z,91.50
2018-12-29T07:14:09.801Z,91.50
2018-12-29T07:16:42.406Z,91.70
2018-12-29T07:19:10.322Z,91.80
2018-12-29T07:21:39.735Z,91.70
2018-12-29T07:24:09.111Z,91.70
2018-12-29T07:26:38.527Z,91.70
2018-12-29T07:29:07.961Z,91.80
2018-12-29T07:31:37.534Z,91.80
2018-12-29T07:34:06.981Z,92.10
2018-12-29T07:36:36.410Z,91.80
2018-12-29T07:39:07.215Z,91.80
2018-12-29T07:41:36.667Z,91.80
2018-12-29T07:44:06.072Z,91.80
2018-12-29T07:46:35.498Z,91.90
2018-12-29T07:49:04.942Z,91.90
2018-12-29T07:51:34.400Z,91.90
2018-12-29T07:54:03.869Z,91.80
2018-12-29T07:56:33.231Z,91.80
2018-12-29T07:59:02.705Z,91.90
2018-12-29T08:01:32.068Z,92.00
2018-12-29T08:04:01.524Z,92.10
2018-12-29T08:06:31.020Z,92.10
2018-12-29T08:09:00.494Z,92.30
2018-12-29T08:11:29.918Z,92.30
2018-12-29T08:13:59.405Z,92.50
2018-12-29T08:16:28.824Z,92.60
2018-12-29T08:18:58.160Z,92.70
2018-12-29T08:21:27.596Z,92.90
2018-12-29T08:23:57.040Z,93.00
2018-12-29T08:26:26.506Z,93.20
2018-12-29T08:28:56.029Z,93.40
2018-12-29T08:31:25.470Z,93.60
2018-12-29T08:33:54.937Z,93.60
2018-12-29T08:36:24.434Z,93.80
2018-12-29T08:38:53.857Z,93.90
2018-12-29T08:41:23.211Z,93.90
2018-12-29T08:43:52.659Z,94.20
2018-12-29T08:46:21.986Z,94.00
2018-12-29T08:48:51.344Z,94.10
2018-12-29T08:51:20.816Z,94.20
2018-12-29T08:53:50.258Z,94.20
2018-12-29T08:56:19.619Z,94.20
2018-12-29T08:58:49.011Z,94.10
2018-12-29T09:01:18.344Z,93.90
2018-12-29T09:03:47.723Z,93.80
2018-12-29T09:06:17.269Z,93.70
2018-12-29T09:08:46.616Z,93.60
2018-12-29T09:11:15.950Z,93.40
2018-12-29T09:13:45.412Z,93.30
2018-12-29T09:16:14.773Z,93.20
2018-12-29T09:18:49.710Z,93.10
2018-12-29T09:21:15.236Z,93.00
2018-12-29T09:23:44.570Z,93.00
2018-12-29T09:26:14.002Z,93.00
2018-12-29T09:28:43.380Z,92.90
2018-12-29T09:31:12.731Z,93.00
2018-12-29T09:33:42.235Z,92.90
2018-12-29T09:36:11.739Z,93.10
2018-12-29T09:38:41.100Z,93.20
2018-12-29T09:41:10.537Z,93.30
2018-12-29T09:43:39.965Z,93.50
2018-12-29T09:46:09.295Z,93.50
2018-12-29T09:48:38.637Z,93.60
2018-12-29T09:51:08.111Z,93.80
2018-12-29T09:53:37.486Z,93.70
2018-12-29T09:56:06.862Z,93.80
2018-12-29T09:58:36.798Z,93.80
2018-12-29T10:01:06.155Z,93.80
2018-12-29T10:03:35.620Z,93.90
2018-12-29T10:06:05.100Z,94.30
2018-12-29T10:08:34.456Z,95.00
2018-12-29T10:11:03.892Z,95.40
2018-12-29T10:13:33.296Z,95.60
2018-12-29T10:16:02.660Z,95.90
2018-12-29T10:18:32.102Z,95.50
2018-12-29T10:21:01.600Z,95.50
2018-12-29T10:23:31.053Z,95.40
2018-12-29T10:26:00.433Z,95.60
2018-12-29T10:28:30.227Z,95.60
2018-12-29T10:30:59.689Z,95.70
2018-12-29T10:33:29.067Z,95.90
2018-12-29T10:35:58.575Z,96.00
2018-12-29T10:38:28.068Z,96.30
2018-12-29T10:40:57.462Z,96.40
2018-12-29T10:43:26.892Z,96.40
2018-12-29T10:45:56.307Z,96.40
2018-12-29T10:48:25.737Z,96.20
2018-12-29T10:50:55.136Z,96.20
2018-12-29T10:53:24.580Z,96.20
2018-12-29T10:55:53.988Z,96.20
2018-12-29T10:58:23.430Z,96.30
2018-12-29T11:00:52.791Z,96.30
2018-12-29T11:03:22.491Z,96.20
2018-12-29T11:05:51.965Z,96.30
2018-12-29T11:08:21.415Z,96.30
2018-12-29T11:10:50.843Z,96.40
2018-12-29T11:13:20.361Z,96.30
2018-12-29T11:15:49.777Z,96.00
2018-12-29T11:18:19.202Z,95.40
2018-12-29T11:20:48.579Z,95.00
2018-12-29T11:23:17.943Z,94.80
2018-12-29T11:25:47.377Z,94.80
2018-12-29T11:28:16.859Z,94.70
2018-12-29T11:30:47.693Z,94.60
2018-12-29T11:33:17.509Z,94.50
2018-12-29T11:35:47.071Z,94.50
2018-12-29T11:38:16.525Z,94.50
2018-12-29T11:40:45.948Z,94.50
2018-12-29T11:43:16.610Z,94.50
2018-12-29T11:45:46.084Z,94.60
2018-12-29T11:48:18.848Z,94.70
2018-12-29T11:50:48.258Z,94.80
2018-12-29T11:53:17.705Z,94.80
2018-12-29T11:55:47.680Z,94.70
2018-12-29T11:58:17.122Z,94.80
2018-12-29T12:00:46.560Z,94.80
2018-12-29T12:03:16.041Z,95.00
2018-12-29T12:05:45.480Z,95.00
2018-12-29T12:08:14.938Z,95.00
2018-12-29T12:10:44.480Z,94.90
2018-12-29T12:13:13.925Z,94.80
2018-12-29T12:15:43.349Z,94.70
2018-12-29T12:18:13.496Z,95.00
2018-12-29T12:20:42.946Z,95.00
2018-12-29T12:23:12.399Z,95.00
2018-12-29T12:25:41.893Z,94.90
2018-12-29T12:28:11.334Z,95.10
2018-12-29T12:30:40.779Z,95.20
2018-12-29T12:33:10.949Z,95.30
2018-12-29T12:35:40.360Z,95.40
2018-12-29T12:38:10.309Z,95.60
2018-12-29T12:40:39.823Z,95.60
2018-12-29T12:43:09.294Z,95.60
2018-12-29T12:45:39.159Z,95.70
2018-12-29T12:48:08.653Z,95.80
2018-12-29T12:50:38.099Z,95.90
2018-12-29T12:53:07.521Z,95.80
2018-12-29T12:55:37.258Z,95.80
2018-12-29T12:58:07.211Z,95.70
2018-12-29T13:00:37.061Z,95.70
2018-12-29T13:03:07.033Z,95.60
2018-12-29T13:05:36.469Z,95.60
2018-12-29T13:08:06.209Z,95.60
2018-12-29T13:10:35.672Z,95.70
2018-12-29T13:13:05.146Z,95.80
2018-12-29T13:15:34.566Z,95.90
2018-12-29T13:18:04.065Z,96.00
2018-12-29T13:20:33.460Z,96.10
2018-12-29T13:23:02.877Z,96.20
2018-12-29T13:25:32.385Z,96.10
2018-12-29T13:28:01.769Z,96.00
2018-12-29T13:30:31.210Z,96.00
2018-12-29T13:33:00.720Z,95.90
2018-12-29T13:35:30.155Z,95.80
2018-12-29T13:37:59.629Z,96.20
2018-12-29T13:40:29.127Z,96.10
2018-12-29T13:42:58.842Z,96.20
2018-12-29T13:45:28.211Z,96.30
2018-12-29T13:47:57.689Z,96.20
2018-12-29T13:50:27.171Z,96.10
2018-12-29T13:52:56.551Z,95.90
2018-12-29T13:55:26.031Z,95.70
2018-12-29T13:57:55.489Z,95.70
2018-12-29T14:00:24.944Z,95.70
2018-12-29T14:02:54.425Z,95.70
2018-12-29T14:05:23.834Z,95.70
2018-12-29T14:07:53.270Z,95.80
2018-12-29T14:10:22.727Z,95.90
2018-12-29T14:12:52.179Z,95.80
2018-12-29T14:15:21.589Z,95.90
2018-12-29T14:17:51.069Z,95.90
2018-12-29T14:20:20.532Z,96.00
2018-12-29T14:22:49.967Z,96.00
2018-12-29T14:25:19.507Z,96.00
2018-12-29T14:27:48.944Z,96.10
2018-12-29T14:30:18.387Z,96.00
2018-12-29T14:32:47.941Z,96.10
2018-12-29T14:35:17.380Z,96.10
2018-12-29T14:37:46.897Z,96.10
2018-12-29T14:40:16.873Z,96.10
2018-12-29T14:42:46.311Z,96.00
2018-12-29T14:45:15.724Z,96.00
2018-12-29T14:47:45.213Z,96.00
2018-12-29T14:50:14.626Z,95.90
2018-12-29T14:52:44.081Z,96.00
2018-12-29T14:55:13.875Z,96.00
2018-12-29T14:57:43.295Z,96.10
2018-12-29T15:00:12.729Z,96.00
2018-12-29T15:02:42.193Z,96.20
2018-12-29T15:05:11.621Z,96.40
2018-12-29T15:07:41.079Z,96.50
2018-12-29T15:10:10.572Z,96.50
2018-12-29T15:12:39.982Z,96.50
2018-12-29T15:15:10.079Z,96.60
2018-12-29T15:17:39.517Z,96.60
2018-12-29T15:20:09.539Z,96.50
2018-12-29T15:22:39.046Z,96.40
2018-12-29T15:25:08.839Z,96.40
2018-12-29T15:27:38.657Z,96.50
2018-12-29T15:30:08.080Z,96.40
2018-12-29T15:32:37.551Z,96.40
2018-12-29T15:35:07.519Z,96.40
2018-12-29T15:37:36.947Z,96.30
2018-12-29T15:40:06.580Z,96.30
2018-12-29T15:42:36.022Z,96.30
2018-12-29T15:45:05.805Z,96.20
2018-12-29T15:47:35.289Z,96.30
2018-12-29T15:50:04.794Z,96.30
2018-12-29T15:52:34.220Z,96.10
2018-12-29T15:55:03.697Z,96.10
2018-12-29T15:57:33.130Z,96.10
2018-12-29T16:00:02.681Z,96.20
2018-12-29T16:02:32.160Z,96.00
2018-12-29T16:05:01.913Z,96.00
2018-12-29T16:07:31.343Z,96.00
2018-12-29T16:10:00.840Z,95.90
2018-12-29T16:12:30.296Z,95.90
2018-12-29T16:14:59.733Z,95.90
2018-12-29T16:17:29.208Z,95.90
2018-12-29T16:19:59.264Z,95.90
2018-12-29T16:22:28.719Z,95.90
2018-12-29T16:24:58.243Z,95.90
2018-12-29T16:27:27.721Z,95.90
2018-12-29T16:29:57.120Z,95.90
2018-12-29T16:32:26.597Z,95.90
2018-12-29T16:34:56.087Z,96.00
2018-12-29T16:37:25.494Z,96.00
2018-12-29T16:39:54.960Z,95.90
2018-12-29T16:42:24.723Z,96.00
2018-12-29T16:44:54.191Z,95.90
2018-12-29T16:47:23.684Z,96.00
2018-12-29T16:49:53.146Z,96.00
2018-12-29T16:52:23.462Z,96.10
2018-12-29T16:54:53.377Z,96.10
2018-12-29T16:57:22.954Z,96.10
2018-12-29T16:59:52.347Z,96.10
2018-12-29T17:02:21.953Z,96.20
2018-12-29T17:04:51.404Z,96.20
2018-12-29T17:07:20.864Z,96.20
2018-12-29T17:09:50.384Z,96.30
2018-12-29T17:12:20.324Z,96.30
2018-12-29T17:14:49.759Z,96.40
2018-12-29T17:17:19.288Z,96.40
2018-12-29T17:19:48.775Z,96.40
2018-12-29T17:22:18.212Z,96.40
2018-12-29T17:24:47.761Z,96.50
2018-12-29T17:27:17.171Z,96.50
2018-12-29T17:29:46.607Z,96.50
2018-12-29T17:32:16.113Z,96.50
2018-12-29T17:34:45.534Z,96.40
2018-12-29T17:37:14.984Z,96.40
2018-12-29T17:39:44.874Z,96.50
2018-12-29T17:42:14.332Z,96.50
2018-12-29T17:44:43.805Z,96.50
2018-12-29T17:47:13.278Z,96.60
2018-12-29T17:49:42.706Z,96.60
2018-12-29T17:52:12.134Z,96.70
2018-12-29T17:54:41.650Z,96.70
2018-12-29T17:57:11.076Z,96.70
2018-12-29T17:59:40.519Z,96.70
2018-12-29T18:02:10.027Z,96.70
2018-12-29T18:04:39.457Z,96.60
2018-12-29T18:07:08.896Z,96.50
2018-12-29T18:09:38.392Z,96.60
2018-12-29T18:12:07.800Z,96.80
2018-12-29T18:14:37.270Z,96.50
2018-12-29T18:17:06.704Z,96.40
2018-12-29T18:19:36.167Z,96.70
2018-12-29T18:22:05.916Z,96.40
2018-12-29T18:24:35.342Z,96.40
2018-12-29T18:27:04.775Z,96.70
2018-12-29T18:29:34.220Z,96.40
2018-12-29T18:32:03.683Z,96.30
2018-12-29T18:34:33.706Z,96.40
2018-12-29T18:37:03.183Z,96.30
2018-12-29T18:39:32.669Z,96.40
2018-12-29T18:42:02.099Z,96.40
2018-12-29T18:44:31.518Z,96.30
2018-12-29T18:47:01.022Z,96.40
2018-12-29T18:49:38.273Z,96.40
2018-12-29T18:52:01.868Z,96.30
2018-12-29T18:54:31.389Z,96.30
2018-12-29T18:57:00.822Z,96.30
2018-12-29T18:59:30.219Z,96.30
2018-12-29T19:02:00.310Z,96.40
2018-12-29T19:04:29.742Z,96.30
2018-12-29T19:06:59.150Z,96.30
2018-12-29T19:09:28.598Z,96.30
2018-12-29T19:11:58.051Z,96.30
2018-12-29T19:14:27.500Z,96.30
2018-12-29T19:16:56.989Z,96.30
2018-12-29T19:19:26.952Z,96.20
2018-12-29T19:21:56.395Z,96.20
2018-12-29T19:24:25.924Z,96.20
2018-12-29T19:26:55.333Z,96.10
2018-12-29T19:29:24.793Z,96.00
2018-12-29T19:31:54.686Z,96.00
2018-12-29T19:34:24.505Z,96.00
2018-12-29T19:36:53.946Z,96.00
2018-12-29T19:39:23.842Z,95.90
2018-12-29T19:41:55.483Z,95.90
2018-12-29T19:44:24.420Z,95.90
2018-12-29T19:46:54.509Z,95.90
2018-12-29T19:49:23.960Z,95.90
2018-12-29T19:51:53.411Z,95.90
2018-12-29T19:54:26.373Z,95.90
2018-12-29T19:56:56.230Z,96.00
2018-12-29T19:59:25.885Z,96.00
2018-12-29T20:01:55.384Z,96.00
2018-12-29T20:04:24.833Z,95.90
2018-12-29T20:06:54.674Z,96.90
2018-12-29T20:09:24.260Z,96.80
2018-12-29T20:11:54.073Z,96.70
2018-12-29T20:14:24.351Z,96.70
2018-12-29T20:16:54.167Z,96.60
2018-12-29T20:19:23.608Z,96.60
2018-12-29T20:21:53.086Z,96.50
2018-12-29T20:24:22.899Z,96.50
2018-12-29T20:26:52.351Z,96.40
2018-12-29T20:29:21.760Z,96.30
2018-12-29T20:31:51.232Z,96.30
2018-12-29T20:34:20.652Z,96.20
2018-12-29T20:36:50.642Z,96.00
2018-12-29T20:39:20.143Z,95.90
2018-12-29T20:41:49.561Z,95.90
2018-12-29T20:44:18.966Z,95.90
2018-12-29T20:46:48.704Z,95.80
2018-12-29T20:49:18.600Z,95.70
2018-12-29T20:51:48.025Z,95.70
2018-12-29T20:54:17.504Z,96.00
2018-12-29T20:56:46.955Z,95.60
2018-12-29T20:59:16.381Z,95.50
2018-12-29T21:01:46.353Z,95.40
2018-12-29T21:04:15.856Z,95.50
2018-12-29T21:06:45.328Z,95.50
2018-12-29T21:09:14.777Z,95.50
2018-12-29T21:11:44.206Z,95.50
2018-12-29T21:14:13.645Z,95.40
2018-12-29T21:16:43.103Z,95.40
2018-12-29T21:19:12.567Z,95.30
2018-12-29T21:21:42.009Z,95.30
2018-12-29T21:24:12.422Z,95.30
2018-12-29T21:26:42.096Z,95.20
2018-12-29T21:29:11.499Z,95.40
2018-12-29T21:31:40.963Z,95.10
2018-12-29T21:34:10.401Z,95.00
2018-12-29T21:36:39.839Z,95.30
2018-12-29T21:39:09.279Z,95.00
2018-12-29T21:41:38.709Z,95.00
2018-12-29T21:44:08.162Z,94.90
2018-12-29T21:46:37.635Z,95.00
2018-12-29T21:49:07.045Z,94.90
2018-12-29T21:51:36.553Z,94.90
2018-12-29T21:54:06.279Z,94.80
2018-12-29T21:56:35.764Z,94.80
2018-12-29T21:59:05.191Z,94.70
2018-12-29T22:01:34.661Z,94.70
2018-12-29T22:04:04.119Z,94.60
2018-12-29T22:06:33.976Z,94.50
2018-12-29T22:09:04.548Z,94.50
2018-12-29T22:11:34.014Z,94.40
2018-12-29T22:14:04.325Z,94.40
2018-12-29T22:16:33.836Z,94.30
2018-12-29T22:19:03.863Z,94.30
2018-12-29T22:21:33.389Z,94.20
2018-12-29T22:24:02.883Z,94.20
2018-12-29T22:26:32.373Z,94.10
2018-12-29T22:29:01.824Z,94.10
2018-12-29T22:31:32.955Z,94.10
2018-12-29T22:34:02.438Z,94.00
2018-12-29T22:36:31.869Z,93.90
2018-12-29T22:39:01.373Z,93.80
2018-12-29T22:41:30.815Z,93.60
2018-12-29T22:44:00.571Z,93.60
2018-12-29T22:46:30.059Z,93.60
2018-12-29T22:48:59.481Z,93.60
2018-12-29T22:51:28.947Z,93.50
2018-12-29T22:53:58.472Z,93.50
2018-12-29T22:56:28.535Z,93.50
2018-12-29T22:58:57.950Z,93.50
2018-12-29T23:01:27.570Z,93.50
2018-12-29T23:03:57.007Z,93.40
2018-12-29T23:06:26.495Z,93.40
2018-12-29T23:08:55.962Z,93.50
2018-12-29T23:11:25.400Z,93.60
2018-12-29T23:13:54.810Z,93.80
2018-12-29T23:16:24.280Z,94.00
2018-12-29T23:18:54.131Z,94.10
2018-12-29T23:21:23.664Z,94.10
2018-12-29T23:23:53.128Z,94.40
2018-12-29T23:26:22.602Z,94.60
2018-12-29T23:28:52.002Z,94.50
2018-12-29T23:31:21.441Z,94.80
2018-12-29T23:33:50.939Z,94.40
2018-12-29T23:36:21.072Z,94.40
2018-12-29T23:38:50.557Z,94.40
2018-12-29T23:41:20.007Z,94.40
2018-12-29T23:43:49.850Z,94.50
2018-12-29T23:46:19.363Z,94.60
2018-12-29T23:48:48.898Z,94.70
2018-12-29T23:51:18.319Z,94.70
2018-12-29T23:53:47.880Z,94.60
2018-12-29T23:56:17.948Z,94.60
2018-12-29T23:58:47.385Z,94.50
